Time;durP1;ratioP1;P1;durP2;ratioP2;P2;SDS_P1;SDS_P2;PMS_P1;PMS_P2;Temp;Humidity;BMP_temperature;BMP_pressure;BME280_temperature;BME280_humidity;BME280_pressure;Samples;Min_cycle;Max_cycle;Signal;HPM_P1;HPM_P2
2023/06/09 00:00:56;;;;;;;3.95;2.97;;;23.30;94.20;;;;;;6200953;28;84044;-69
2023/06/09 00:03:59;;;;;;;3.53;3.22;;;23.30;94.10;;;;;;6199800;28;84190;-70
2023/06/09 00:07:02;;;;;;;3.65;3.35;;;23.30;94.10;;;;;;6207613;28;82551;-70
2023/06/09 00:10:04;;;;;;;6.00;3.97;;;23.30;94.00;;;;;;6206282;28;83974;-70
2023/06/09 00:13:07;;;;;;;6.10;3.92;;;23.30;94.00;;;;;;6204208;28;84053;-69
2023/06/09 00:16:09;;;;;;;3.53;3.22;;;23.30;94.00;;;;;;6208250;28;85043;-69
2023/06/09 00:19:13;;;;;;;4.07;3.50;;;23.30;94.00;;;;;;6204159;28;84047;-70
2023/06/09 00:22:15;;;;;;;3.30;3.00;;;23.30;93.90;;;;;;6206908;28;84443;-70
2023/06/09 00:25:20;;;;;;;5.50;3.60;;;23.30;93.90;;;;;;6202923;28;83459;-70
2023/06/09 00:28:22;;;;;;;3.40;3.10;;;23.30;93.90;;;;;;6212515;28;84115;-69
2023/06/09 00:31:24;;;;;;;3.70;3.40;;;23.30;93.60;;;;;;6212454;28;84181;-69
2023/06/09 00:34:27;;;;;;;4.20;3.30;;;23.20;93.50;;;;;;6209689;28;84053;-70
2023/06/09 00:37:30;;;;;;;3.67;3.38;;;23.30;93.50;;;;;;6210871;28;83304;-69
2023/06/09 00:40:32;;;;;;;4.35;3.80;;;23.30;93.40;;;;;;6211783;28;84285;-69
2023/06/09 00:43:34;;;;;;;3.83;3.47;;;23.20;93.40;;;;;;6210393;28;84034;-69
2023/06/09 00:46:36;;;;;;;3.85;3.53;;;23.20;93.40;;;;;;6210741;28;85044;-69
2023/06/09 00:49:40;;;;;;;3.72;3.33;;;23.30;93.40;;;;;;6208223;28;83993;-70
2023/06/09 00:52:43;;;;;;;3.95;3.58;;;23.30;93.20;;;;;;6210208;28;83786;-70
2023/06/09 00:55:44;;;;;;;4.00;3.60;;;23.30;93.20;;;;;;6211765;28;84012;-69
2023/06/09 00:58:47;;;;;;;3.53;3.22;;;23.20;93.10;;;;;;6208848;28;83124;-69
2023/06/09 01:01:49;;;;;;;3.90;3.60;;;23.20;93.00;;;;;;6209002;28;84228;-69
2023/06/09 01:04:54;;;;;;;3.80;3.50;;;23.20;93.10;;;;;;6208912;28;84274;-69
2023/06/09 01:08:02;;;;;;;4.18;3.55;;;23.20;93.10;;;;;;6210531;28;83372;-69
2023/06/09 01:11:13;;;;;;;4.05;3.42;;;23.20;93.00;;;;;;6205547;28;84017;-70
2023/06/09 01:14:21;;;;;;;3.83;3.45;;;23.20;93.00;;;;;;6203309;28;82820;-69
2023/06/09 01:17:24;;;;;;;4.57;3.60;;;23.20;93.00;;;;;;6208865;28;85057;-69
2023/06/09 01:20:38;;;;;;;3.90;3.50;;;23.20;93.00;;;;;;6210437;28;84041;-70
2023/06/09 01:23:51;;;;;;;3.95;3.50;;;23.20;92.80;;;;;;6209599;28;84021;-69
2023/06/09 01:26:58;;;;;;;4.45;3.60;;;23.20;92.80;;;;;;6207268;28;84103;-70
2023/06/09 01:30:01;;;;;;;3.80;3.50;;;23.20;92.80;;;;;;6211592;28;84121;-70
2023/06/09 01:33:08;;;;;;;4.10;3.42;;;23.10;92.80;;;;;;6198362;28;82932;-70
2023/06/09 01:36:10;;;;;;;3.97;3.67;;;23.20;92.70;;;;;;6203893;28;84187;-69
2023/06/09 01:39:13;;;;;;;4.00;3.60;;;23.20;92.70;;;;;;6203974;28;82198;-69
2023/06/09 01:42:16;;;;;;;3.72;3.42;;;23.20;92.70;;;;;;6210260;28;84212;-69
2023/06/09 01:45:18;;;;;;;3.90;3.45;;;23.20;92.70;;;;;;6209385;28;84342;-69
2023/06/09 01:48:39;;;;;;;3.83;3.53;;;23.20;92.70;;;;;;6207808;28;85009;-69
2023/06/09 01:51:46;;;;;;;4.07;3.67;;;23.10;92.60;;;;;;6201345;28;84035;-70
2023/06/09 01:54:54;;;;;;;3.78;3.42;;;23.10;92.60;;;;;;6208992;28;84261;-70
2023/06/09 01:58:04;;;;;;;3.83;3.40;;;23.20;92.50;;;;;;6209849;28;83933;-70
2023/06/09 02:01:07;;;;;;;3.90;3.53;;;23.10;92.40;;;;;;6209492;28;84042;-70
2023/06/09 02:04:13;;;;;;;3.53;3.22;;;23.10;92.40;;;;;;6200709;28;83999;-70
2023/06/09 02:07:16;;;;;;;3.92;3.30;;;23.10;92.30;;;;;;6209324;28;84078;-70
2023/06/09 02:10:21;;;;;;;3.53;3.20;;;23.10;92.20;;;;;;6210885;28;82625;-70
2023/06/09 02:13:24;;;;;;;3.72;3.42;;;23.10;92.20;;;;;;6208379;28;84026;-70
2023/06/09 02:16:26;;;;;;;3.90;3.40;;;23.10;92.10;;;;;;6209135;28;83861;-70
2023/06/09 02:19:28;;;;;;;3.72;3.15;;;23.10;92.20;;;;;;6209275;28;83844;-70
2023/06/09 02:22:30;;;;;;;3.35;3.03;;;23.10;92.20;;;;;;6210211;28;83966;-70
2023/06/09 02:25:33;;;;;;;3.70;3.33;;;23.20;92.20;;;;;;6207027;28;84031;-70
2023/06/09 02:28:36;;;;;;;5.78;3.88;;;23.10;92.10;;;;;;6206902;28;84440;-70
2023/06/09 02:31:38;;;;;;;3.90;3.53;;;23.10;92.10;;;;;;6196711;28;84138;-70
2023/06/09 02:34:41;;;;;;;4.30;3.63;;;23.10;92.10;;;;;;6206521;28;84023;-70
2023/06/09 02:37:43;;;;;;;3.55;3.25;;;23.10;92.20;;;;;;6209843;28;84169;-70
2023/06/09 02:40:46;;;;;;;3.60;3.30;;;23.10;92.20;;;;;;6209771;28;83836;-70
2023/06/09 02:43:50;;;;;;;3.33;3.03;;;23.10;92.10;;;;;;6205486;28;84146;-70
2023/06/09 02:46:52;;;;;;;4.13;3.40;;;23.10;92.10;;;;;;6204837;28;83967;-70
2023/06/09 02:49:54;;;;;;;3.70;3.40;;;23.10;92.00;;;;;;6208565;28;84819;-70
2023/06/09 02:52:56;;;;;;;5.05;4.07;;;23.10;92.00;;;;;;6208070;28;83060;-70
2023/06/09 02:55:58;;;;;;;3.60;3.30;;;23.10;92.10;;;;;;6210179;28;84089;-70
2023/06/09 02:59:02;;;;;;;3.38;3.08;;;23.10;92.20;;;;;;6209077;28;83760;-70
2023/06/09 03:02:04;;;;;;;3.80;3.47;;;23.10;92.20;;;;;;6208377;28;84430;-70
2023/06/09 03:05:07;;;;;;;4.13;3.72;;;23.10;92.20;;;;;;6199994;28;84067;-70
2023/06/09 03:08:09;;;;;;;3.88;3.50;;;23.10;92.20;;;;;;6208101;28;84213;-70
2023/06/09 03:11:11;;;;;;;3.75;3.45;;;23.10;92.10;;;;;;6209362;28;83640;-70
2023/06/09 03:14:15;;;;;;;4.30;3.72;;;23.10;92.10;;;;;;6202357;28;84129;-70
2023/06/09 03:17:17;;;;;;;4.22;3.33;;;23.10;92.10;;;;;;6208334;28;83964;-70
2023/06/09 03:20:20;;;;;;;4.35;3.80;;;23.10;92.00;;;;;;6207744;28;85121;-70
2023/06/09 03:23:22;;;;;;;4.35;3.95;;;23.10;92.00;;;;;;6207873;28;83993;-70
2023/06/09 03:26:26;;;;;;;3.95;3.55;;;23.10;92.00;;;;;;6209554;28;84129;-69
2023/06/09 03:29:29;;;;;;;3.80;3.50;;;23.10;91.90;;;;;;6208295;28;84529;-69
2023/06/09 03:32:31;;;;;;;3.97;3.40;;;23.10;92.00;;;;;;6204511;28;84173;-70
2023/06/09 03:35:33;;;;;;;3.70;3.40;;;23.10;91.90;;;;;;6206748;28;84058;-70
2023/06/09 03:38:36;;;;;;;3.70;3.38;;;23.00;91.90;;;;;;6206907;28;84143;-70
2023/06/09 03:41:37;;;;;;;3.92;3.55;;;23.00;91.80;;;;;;6208419;28;83353;-70
2023/06/09 03:44:41;;;;;;;3.88;3.47;;;23.00;92.00;;;;;;6205065;28;84115;-69
2023/06/09 03:47:43;;;;;;;5.53;3.92;;;23.00;92.00;;;;;;6207570;28;82017;-69
2023/06/09 03:50:45;;;;;;;3.83;3.53;;;23.00;92.00;;;;;;6207010;28;84978;-69
2023/06/09 03:53:47;;;;;;;4.28;3.88;;;23.00;92.40;;;;;;6205694;28;84057;-69
2023/06/09 03:56:49;;;;;;;4.05;3.70;;;23.00;92.00;;;;;;6205142;28;82899;-69
2023/06/09 03:59:53;;;;;;;4.03;3.70;;;23.00;91.80;;;;;;6205972;28;82923;-69
2023/06/09 04:02:55;;;;;;;3.90;3.60;;;23.00;91.80;;;;;;6212103;28;84231;-69
2023/06/09 04:05:57;;;;;;;3.83;3.50;;;23.00;91.80;;;;;;6210091;28;84148;-69
2023/06/09 04:08:59;;;;;;;4.47;3.97;;;23.00;91.80;;;;;;6211357;28;84380;-69
2023/06/09 04:12:01;;;;;;;4.38;3.97;;;23.00;91.70;;;;;;6211322;28;82195;-69
2023/06/09 04:15:06;;;;;;;4.43;4.00;;;23.00;91.80;;;;;;6208849;28;84366;-69
2023/06/09 04:18:08;;;;;;;4.53;4.13;;;23.00;91.70;;;;;;6208038;28;84693;-69
2023/06/09 04:21:11;;;;;;;4.32;3.67;;;23.00;91.70;;;;;;6203531;28;85218;-70
2023/06/09 04:24:14;;;;;;;4.20;3.90;;;23.00;91.80;;;;;;6211973;28;85506;-69
2023/06/09 04:27:19;;;;;;;4.80;3.80;;;23.00;91.70;;;;;;6208183;28;84041;-70
2023/06/09 04:30:25;;;;;;;3.90;3.60;;;23.00;91.80;;;;;;6210120;28;84190;-69
2023/06/09 04:33:27;;;;;;;4.63;4.20;;;23.00;91.80;;;;;;6207204;28;82969;-69
2023/06/09 04:36:32;;;;;;;4.30;3.90;;;23.00;91.80;;;;;;6210661;28;83098;-69
2023/06/09 04:39:34;;;;;;;4.15;3.85;;;23.00;91.80;;;;;;6210103;28;84891;-69
2023/06/09 04:42:37;;;;;;;6.53;4.43;;;23.00;91.90;;;;;;6205862;28;83368;-69
2023/06/09 04:45:41;;;;;;;4.50;3.63;;;23.00;91.90;;;;;;6207246;28;84037;-69
2023/06/09 04:48:44;;;;;;;4.40;4.00;;;23.00;92.00;;;;;;6203747;28;84457;-69
2023/06/09 04:51:48;;;;;;;5.55;4.13;;;23.00;91.90;;;;;;6209314;28;85080;-70
2023/06/09 04:54:51;;;;;;;4.57;4.18;;;23.00;92.00;;;;;;6206962;28;84131;-71
2023/06/09 04:57:55;;;;;;;3.92;3.63;;;23.00;92.00;;;;;;6208691;28;85300;-72
2023/06/09 05:00:59;;;;;;;5.35;4.40;;;23.00;92.20;;;;;;6206423;28;84012;-71
2023/06/09 05:04:01;;;;;;;5.13;4.47;;;23.00;92.50;;;;;;6199335;28;83831;-72
2023/06/09 05:07:03;;;;;;;4.22;3.83;;;23.00;92.80;;;;;;6206017;28;84009;-71
2023/06/09 05:10:07;;;;;;;6.03;4.10;;;23.00;92.80;;;;;;6208212;28;84224;-71
2023/06/09 05:13:09;;;;;;;4.80;4.40;;;23.00;92.80;;;;;;6206643;28;83314;-70
2023/06/09 05:16:15;;;;;;;4.72;3.88;;;23.00;93.00;;;;;;6210319;28;84333;-70
2023/06/09 05:19:17;;;;;;;5.50;3.80;;;22.90;93.00;;;;;;6204257;28;84047;-70
2023/06/09 05:22:19;;;;;;;5.03;3.92;;;23.00;92.90;;;;;;6207817;28;85015;-70
2023/06/09 05:25:21;;;;;;;6.20;3.85;;;23.00;92.70;;;;;;6204689;28;84192;-70
2023/06/09 05:28:23;;;;;;;4.00;3.50;;;23.00;92.60;;;;;;6209507;28;84723;-70
2023/06/09 05:31:26;;;;;;;4.28;3.55;;;23.00;92.60;;;;;;6210581;28;82530;-70
2023/06/09 05:34:29;;;;;;;5.38;3.88;;;23.00;92.50;;;;;;6209054;28;84033;-70
2023/06/09 05:37:31;;;;;;;4.55;3.58;;;22.90;92.50;;;;;;6207508;28;84048;-70
2023/06/09 05:40:33;;;;;;;4.60;3.72;;;23.00;92.50;;;;;;6203337;28;84014;-68
2023/06/09 05:43:35;;;;;;;7.97;4.10;;;23.00;92.50;;;;;;6204290;28;85354;-69
2023/06/09 05:46:39;;;;;;;8.32;4.18;;;23.00;92.80;;;;;;6206627;28;83970;-72
2023/06/09 05:49:41;;;;;;;7.47;4.20;;;23.00;92.90;;;;;;6205300;28;82945;-69
2023/06/09 05:52:43;;;;;;;6.03;4.15;;;23.00;93.10;;;;;;6209134;28;85553;-70
2023/06/09 05:55:46;;;;;;;4.57;3.63;;;23.00;93.10;;;;;;6209386;28;84105;-70
2023/06/09 05:58:48;;;;;;;5.32;3.90;;;23.00;93.60;;;;;;6198971;28;84117;-69
2023/06/09 06:01:51;;;;;;;4.38;3.97;;;23.00;93.60;;;;;;6207448;28;82842;-69
2023/06/09 06:04:53;;;;;;;4.47;3.90;;;23.00;93.50;;;;;;6198184;28;83073;-69
2023/06/09 06:07:56;;;;;;;5.40;4.10;;;23.00;93.80;;;;;;6194264;28;83499;-69
2023/06/09 06:10:59;;;;;;;5.20;3.90;;;23.00;93.90;;;;;;6206272;28;84079;-68
2023/06/09 06:14:00;;;;;;;7.90;4.63;;;23.00;93.90;;;;;;6206033;28;83658;-72
2023/06/09 06:17:04;;;;;;;7.53;4.65;;;23.00;95.10;;;;;;6197230;28;84135;-68
2023/06/09 06:20:07;;;;;;;6.95;4.72;;;23.00;95.40;;;;;;6205405;28;84115;-69
2023/06/09 06:23:09;;;;;;;6.10;4.07;;;23.00;95.30;;;;;;6200084;28;85046;-69
2023/06/09 06:26:11;;;;;;;6.53;4.45;;;23.00;95.40;;;;;;6209447;28;83960;-68
2023/06/09 06:29:13;;;;;;;5.05;4.00;;;23.00;95.50;;;;;;6207535;28;84164;-68
2023/06/09 06:32:17;;;;;;;4.95;4.00;;;23.00;95.60;;;;;;6209070;28;85744;-68
2023/06/09 06:35:27;;;;;;;7.05;4.05;;;23.00;95.50;;;;;;6208029;28;82887;-68
2023/06/09 06:38:29;;;;;;;7.30;4.15;;;23.00;96.10;;;;;;6208149;28;84115;-68
2023/06/09 06:41:31;;;;;;;6.18;4.55;;;23.10;96.00;;;;;;6205480;28;82958;-68
2023/06/09 06:44:33;;;;;;;8.30;4.32;;;23.10;96.00;;;;;;6204733;28;83315;-68
2023/06/09 06:47:36;;;;;;;6.80;4.68;;;23.10;95.90;;;;;;6204136;28;84086;-68
2023/06/09 06:50:40;;;;;;;6.50;4.50;;;23.10;96.30;;;;;;6204256;28;83655;-68
2023/06/09 06:53:42;;;;;;;6.78;4.75;;;23.00;96.30;;;;;;6205109;28;85046;-68
2023/06/09 06:56:44;;;;;;;7.53;4.78;;;23.10;97.00;;;;;;6208851;28;84100;-68
2023/06/09 06:59:46;;;;;;;6.00;4.40;;;23.10;96.60;;;;;;6207791;28;84306;-68
2023/06/09 07:02:49;;;;;;;5.05;4.55;;;23.00;96.50;;;;;;6206270;28;84091;-68
2023/06/09 07:05:51;;;;;;;5.10;4.35;;;23.10;96.80;;;;;;6208720;28;83970;-69
2023/06/09 07:08:54;;;;;;;4.93;4.40;;;23.10;96.60;;;;;;6197361;28;84064;-68
2023/06/09 07:11:56;;;;;;;5.05;4.55;;;23.10;96.50;;;;;;6207825;28;83986;-68
2023/06/09 07:14:57;;;;;;;6.15;4.43;;;23.10;96.20;;;;;;6208553;28;83250;-68
2023/06/09 07:18:01;;;;;;;5.07;4.47;;;23.10;96.20;;;;;;6209244;28;84855;-69
2023/06/09 07:21:03;;;;;;;5.65;4.53;;;23.10;96.20;;;;;;6208342;28;83304;-68
2023/06/09 07:24:06;;;;;;;6.53;4.63;;;23.10;96.00;;;;;;6207141;28;84878;-68
2023/06/09 07:27:09;;;;;;;5.30;4.80;;;23.10;96.10;;;;;;6202218;28;84083;-68
2023/06/09 07:30:11;;;;;;;5.00;4.60;;;23.10;96.30;;;;;;6208728;28;84523;-68
2023/06/09 07:33:16;;;;;;;7.30;5.55;;;23.10;96.40;;;;;;6208927;28;84178;-69
2023/06/09 07:36:19;;;;;;;6.05;5.47;;;23.10;96.80;;;;;;6208601;28;83036;-68
2023/06/09 07:39:21;;;;;;;6.03;5.43;;;23.10;99.40;;;;;;6208620;28;84096;-68
2023/06/09 07:42:23;;;;;;;6.03;5.18;;;23.10;99.30;;;;;;6198375;28;82921;-69
2023/06/09 07:45:25;;;;;;;5.93;5.00;;;23.10;99.50;;;;;;6207455;28;83696;-70
2023/06/09 07:48:29;;;;;;;7.45;5.82;;;23.10;98.70;;;;;;6206933;28;83919;-71
2023/06/09 07:51:36;;;;;;;12.77;7.38;;;23.10;98.30;;;;;;6208339;28;82861;-70
2023/06/09 07:54:38;;;;;;;14.13;8.35;;;23.10;98.80;;;;;;6207944;28;85703;-69
2023/06/09 07:57:41;;;;;;;14.35;7.47;;;23.10;99.20;;;;;;6209325;28;84175;-70
2023/06/09 08:00:43;;;;;;;9.73;6.70;;;23.20;99.60;;;;;;6208598;28;83988;-68
2023/06/09 08:03:46;;;;;;;13.35;7.57;;;23.10;99.50;;;;;;6208849;28;82867;-69
2023/06/09 08:06:48;;;;;;;11.77;7.50;;;23.20;99.20;;;;;;6208482;28;82985;-69
2023/06/09 08:09:50;;;;;;;11.70;8.20;;;23.10;99.20;;;;;;6208784;28;86517;-68
2023/06/09 08:12:52;;;;;;;9.55;7.80;;;23.20;98.80;;;;;;6194961;28;84041;-69
2023/06/09 08:15:54;;;;;;;14.52;7.90;;;23.20;99.00;;;;;;6207333;28;83208;-69
2023/06/09 08:18:58;;;;;;;13.55;8.35;;;23.10;99.40;;;;;;6207585;28;84136;-70
2023/06/09 08:22:01;;;;;;;23.70;11.38;;;23.20;99.90;;;;;;6209284;28;84024;-70
2023/06/09 08:25:03;;;;;;;21.95;11.43;;;23.20;99.90;;;;;;6206226;28;84945;-70
2023/06/09 08:28:05;;;;;;;15.65;8.82;;;23.20;99.90;;;;;;6205878;28;84064;-69
2023/06/09 08:31:09;;;;;;;18.40;9.93;;;23.20;99.90;;;;;;6208335;28;84116;-69
2023/06/09 08:34:12;;;;;;;12.80;8.45;;;23.20;99.90;;;;;;6207310;28;84015;-69
2023/06/09 08:37:15;;;;;;;14.70;8.25;;;23.20;99.90;;;;;;6207287;28;84021;-69
2023/06/09 08:40:18;;;;;;;9.65;7.60;;;23.10;99.90;;;;;;6203833;28;84049;-69
2023/06/09 08:43:20;;;;;;;9.07;7.50;;;23.20;99.90;;;;;;6207726;28;83967;-69
2023/06/09 08:46:22;;;;;;;11.35;7.57;;;23.20;99.90;;;;;;6210313;28;83458;-66
2023/06/09 08:49:26;;;;;;;12.20;7.00;;;23.20;99.90;;;;;;6211409;28;84050;-67
2023/06/09 08:52:29;;;;;;;10.90;7.10;;;23.20;99.90;;;;;;6212885;28;82848;-67
2023/06/09 08:55:31;;;;;;;8.02;7.03;;;23.30;99.90;;;;;;6211279;28;85303;-66
2023/06/09 08:58:34;;;;;;;9.32;6.68;;;23.30;99.90;;;;;;6211832;28;84241;-67
2023/06/09 09:01:38;;;;;;;10.30;7.75;;;23.30;99.90;;;;;;6211553;28;84017;-66
2023/06/09 09:04:49;;;;;;;9.60;7.25;;;23.30;99.90;;;;;;6211283;28;84049;-68
2023/06/09 09:07:51;;;;;;;8.48;6.65;;;23.40;99.90;;;;;;6210801;28;84129;-68
2023/06/09 09:10:53;;;;;;;8.15;6.50;;;23.40;99.90;;;;;;6210823;28;84093;-68
2023/06/09 09:13:55;;;;;;;8.95;6.28;;;23.50;99.90;;;;;;6210811;28;84217;-67
2023/06/09 09:16:57;;;;;;;10.30;6.60;;;23.50;99.90;;;;;;6211145;28;83587;-67
2023/06/09 09:20:07;;;;;;;9.55;6.22;;;23.60;99.90;;;;;;6212219;28;84255;-68
2023/06/09 09:23:09;;;;;;;6.82;6.10;;;23.60;99.90;;;;;;6204208;28;84029;-68
2023/06/09 09:26:11;;;;;;;9.15;6.47;;;23.60;99.90;;;;;;6210704;28;85006;-67
2023/06/09 09:29:14;;;;;;;6.57;5.65;;;23.60;99.90;;;;;;6211423;28;84253;-67
2023/06/09 09:32:16;;;;;;;9.15;5.90;;;23.60;99.90;;;;;;6211564;28;84036;-67
2023/06/09 09:35:20;;;;;;;7.90;5.85;;;23.50;99.90;;;;;;6211003;28;84119;-67
2023/06/09 09:38:24;;;;;;;7.25;5.47;;;23.50;99.90;;;;;;6211188;28;84563;-67
2023/06/09 09:41:26;;;;;;;8.02;6.00;;;23.60;99.90;;;;;;6210568;28;84160;-67
2023/06/09 09:44:36;;;;;;;7.53;5.47;;;23.50;99.90;;;;;;6198805;28;83941;-67
2023/06/09 09:47:38;;;;;;;6.93;5.65;;;23.50;99.90;;;;;;6206430;28;83623;-67
2023/06/09 09:50:44;;;;;;;7.43;5.93;;;23.50;99.90;;;;;;6206418;28;83035;-68
2023/06/09 09:53:46;;;;;;;7.55;5.93;;;23.50;99.90;;;;;;6208830;28;84080;-67
2023/06/09 09:56:48;;;;;;;8.45;5.70;;;23.50;99.90;;;;;;6210217;28;84801;-67
2023/06/09 09:59:52;;;;;;;6.38;5.20;;;23.40;99.90;;;;;;6204805;28;82897;-67
2023/06/09 10:03:00;;;;;;;6.88;5.32;;;23.40;99.90;;;;;;6210626;28;84302;-67
2023/06/09 10:06:04;;;;;;;6.82;5.43;;;23.40;99.90;;;;;;6210937;28;83938;-67
2023/06/09 10:09:06;;;;;;;6.10;5.30;;;23.40;99.90;;;;;;6210361;28;84059;-67
2023/06/09 10:12:10;;;;;;;7.25;5.63;;;23.40;99.80;;;;;;6207133;28;84332;-67
2023/06/09 10:15:14;;;;;;;9.00;6.13;;;23.40;99.80;;;;;;6198641;28;84416;-67
2023/06/09 10:18:17;;;;;;;6.20;5.30;;;23.40;99.80;;;;;;6200304;28;83335;-67
2023/06/09 10:21:22;;;;;;;7.45;5.38;;;23.40;99.70;;;;;;6209645;28;84132;-68
2023/06/09 10:24:25;;;;;;;6.63;5.57;;;23.30;99.70;;;;;;6202425;28;84349;-67
2023/06/09 10:27:27;;;;;;;7.88;5.35;;;23.40;99.60;;;;;;6210188;28;84214;-67
2023/06/09 10:30:30;;;;;;;6.38;5.15;;;23.40;99.40;;;;;;6209094;28;84039;-67
2023/06/09 10:33:36;;;;;;;6.35;5.25;;;23.40;99.40;;;;;;6197821;28;83964;-68
2023/06/09 10:36:41;;;;;;;6.65;5.30;;;23.40;99.20;;;;;;6210045;28;84180;-67
2023/06/09 10:39:52;;;;;;;6.32;5.30;;;23.30;99.10;;;;;;6210205;28;84009;-67
2023/06/09 10:43:26;;;;;;;5.57;4.90;;;23.30;99.10;;;;;;6209759;28;83904;-67
2023/06/09 10:46:42;;;;;;;7.55;5.40;;;23.30;99.10;;;;;;6209258;28;82476;-67
2023/06/09 10:49:45;;;;;;;6.80;5.10;;;23.30;99.10;;;;;;6208414;28;83639;-67
2023/06/09 10:52:53;;;;;;;6.13;5.50;;;23.30;99.10;;;;;;6209824;28;83750;-67
2023/06/09 10:56:36;;;;;;;6.72;5.35;;;23.30;99.10;;;;;;6209548;28;83955;-67
2023/06/09 11:00:11;;;;;;;6.43;4.93;;;23.30;99.00;;;;;;6199585;28;83876;-67
2023/06/09 11:03:30;;;;;;;6.10;5.10;;;23.30;99.00;;;;;;6199985;28;84150;-67
2023/06/09 11:07:12;;;;;;;5.85;5.25;;;23.30;98.80;;;;;;6208843;28;84983;-67
2023/06/09 11:10:37;;;;;;;6.03;5.07;;;23.30;98.80;;;;;;6198688;28;82962;-67
2023/06/09 11:13:41;;;;;;;5.43;4.93;;;23.30;98.80;;;;;;6209043;28;84702;-68
2023/06/09 11:17:16;;;;;;;6.10;5.20;;;23.30;98.80;;;;;;6208780;28;84322;-67
2023/06/09 11:20:19;;;;;;;6.15;5.20;;;23.30;98.80;;;;;;6201440;28;84040;-68
2023/06/09 11:23:22;;;;;;;4.97;4.57;;;23.30;98.70;;;;;;6210533;28;82165;-67
2023/06/09 11:26:26;;;;;;;5.68;4.82;;;23.30;98.60;;;;;;6208655;28;83868;-68
2023/06/09 11:29:29;;;;;;;6.55;5.10;;;23.30;98.50;;;;;;6208807;28;83733;-67
2023/06/09 11:32:47;;;;;;;6.43;5.07;;;23.30;98.40;;;;;;6208258;28;85144;-68
2023/06/09 11:35:49;;;;;;;6.20;5.05;;;23.30;98.30;;;;;;6207103;28;84111;-67
2023/06/09 11:38:52;;;;;;;5.18;4.68;;;23.30;98.10;;;;;;6198428;28;83235;-67
2023/06/09 11:41:58;;;;;;;4.97;4.47;;;23.30;98.00;;;;;;6208524;28;82947;-67
2023/06/09 11:45:03;;;;;;;5.57;4.63;;;23.30;97.90;;;;;;6204609;28;84055;-67
2023/06/09 11:48:07;;;;;;;7.68;5.47;;;23.30;98.00;;;;;;6209189;28;84503;-67
2023/06/09 11:51:10;;;;;;;5.82;5.07;;;23.30;98.20;;;;;;6209082;28;82897;-68
2023/06/09 11:54:12;;;;;;;5.13;4.68;;;23.30;98.20;;;;;;6209997;28;83289;-67
2023/06/09 11:57:19;;;;;;;5.63;4.97;;;23.30;98.10;;;;;;6208992;28;83966;-67
2023/06/09 12:00:26;;;;;;;5.25;4.75;;;23.30;98.20;;;;;;6209084;28;84276;-67
2023/06/09 12:03:33;;;;;;;5.35;4.85;;;23.30;98.20;;;;;;6196583;28;84974;-67
2023/06/09 12:06:36;;;;;;;5.38;4.88;;;23.30;98.20;;;;;;6208149;28;84064;-68
2023/06/09 12:09:38;;;;;;;5.43;4.65;;;23.30;98.20;;;;;;6207906;28;83648;-67
2023/06/09 12:12:46;;;;;;;5.20;4.70;;;23.30;98.20;;;;;;6208136;28;82917;-67
2023/06/09 12:15:53;;;;;;;5.93;4.90;;;23.30;98.10;;;;;;6208900;28;84213;-67
2023/06/09 12:18:55;;;;;;;5.22;4.72;;;23.30;98.00;;;;;;6207593;28;84020;-67
2023/06/09 12:21:57;;;;;;;5.97;4.88;;;23.30;97.80;;;;;;6212115;28;84025;-67
2023/06/09 12:24:59;;;;;;;5.35;4.53;;;23.30;97.80;;;;;;6212292;28;83553;-67
2023/06/09 12:28:15;;;;;;;5.03;4.53;;;23.30;97.70;;;;;;6211357;28;84059;-67
2023/06/09 12:31:18;;;;;;;4.97;4.55;;;23.30;97.60;;;;;;6212741;28;84333;-67
2023/06/09 12:34:28;;;;;;;5.38;4.68;;;23.30;97.60;;;;;;6211598;28;84978;-68
2023/06/09 12:37:37;;;;;;;6.43;5.05;;;23.30;97.60;;;;;;6199332;28;84443;-67
2023/06/09 12:40:48;;;;;;;4.90;4.40;;;23.30;97.60;;;;;;6210277;28;84039;-67
2023/06/09 12:43:54;;;;;;;4.97;4.47;;;23.30;97.60;;;;;;6197908;28;83029;-67
2023/06/09 12:46:56;;;;;;;5.55;5.00;;;23.30;97.60;;;;;;6212047;28;84168;-67
2023/06/09 12:50:00;;;;;;;5.03;4.53;;;23.30;97.60;;;;;;6202223;28;84055;-67
2023/06/09 12:53:02;;;;;;;5.18;4.68;;;23.30;97.60;;;;;;6203162;28;83958;-67
2023/06/09 12:56:04;;;;;;;5.18;4.68;;;23.30;97.70;;;;;;6206525;28;83310;-67
2023/06/09 12:59:08;;;;;;;5.90;4.75;;;23.30;97.80;;;;;;6202964;28;83273;-68
2023/06/09 13:02:09;;;;;;;5.25;4.70;;;23.30;97.70;;;;;;6211814;28;83234;-67
2023/06/09 13:05:12;;;;;;;4.63;4.15;;;23.30;97.60;;;;;;6211951;28;84980;-67
2023/06/09 13:08:13;;;;;;;4.55;4.13;;;23.30;97.60;;;;;;6211602;28;84154;-67
2023/06/09 13:11:15;;;;;;;4.97;4.20;;;23.30;97.60;;;;;;6201583;28;84035;-67
2023/06/09 13:14:19;;;;;;;4.50;4.10;;;23.30;97.50;;;;;;6211777;28;84338;-67
2023/06/09 13:17:21;;;;;;;4.95;4.28;;;23.30;97.50;;;;;;6210207;28;83353;-67
2023/06/09 13:20:23;;;;;;;5.30;4.80;;;23.30;97.40;;;;;;6211326;28;84371;-68
2023/06/09 13:23:25;;;;;;;4.50;4.10;;;23.30;97.40;;;;;;6211944;28;84132;-68
2023/06/09 13:26:28;;;;;;;4.75;4.20;;;23.30;97.40;;;;;;6212104;28;83335;-68
2023/06/09 13:29:31;;;;;;;5.40;4.90;;;23.30;97.40;;;;;;6211152;28;84351;-67
2023/06/09 13:32:33;;;;;;;5.82;4.55;;;23.30;97.40;;;;;;6209917;28;84012;-68
2023/06/09 13:35:38;;;;;;;4.85;4.45;;;23.30;97.30;;;;;;6211251;28;85350;-68
2023/06/09 13:38:40;;;;;;;4.72;4.20;;;23.30;97.30;;;;;;6211465;28;83944;-68
2023/06/09 13:41:42;;;;;;;4.65;4.25;;;23.30;97.30;;;;;;6210886;28;82834;-68
2023/06/09 13:44:46;;;;;;;4.95;4.43;;;23.30;97.40;;;;;;6210166;28;84000;-67
2023/06/09 13:47:48;;;;;;;4.53;4.13;;;23.30;97.40;;;;;;6209549;28;84256;-68
2023/06/09 13:50:52;;;;;;;4.57;4.18;;;23.20;97.20;;;;;;6199185;28;84217;-68
2023/06/09 13:53:54;;;;;;;5.18;4.68;;;23.30;97.30;;;;;;6211320;28;84371;-68
2023/06/09 13:56:57;;;;;;;4.78;4.28;;;23.30;97.30;;;;;;6211889;28;83289;-68
2023/06/09 14:00:00;;;;;;;4.68;4.28;;;23.30;97.30;;;;;;6209884;28;84146;-67
2023/06/09 14:03:03;;;;;;;4.60;4.20;;;23.30;97.30;;;;;;6210159;28;84083;-68
2023/06/09 14:06:05;;;;;;;4.47;4.07;;;23.30;97.20;;;;;;6209459;28;85199;-68
2023/06/09 14:09:08;;;;;;;5.22;4.50;;;23.30;97.00;;;;;;6210002;28;84005;-68
2023/06/09 14:12:10;;;;;;;5.55;4.55;;;23.30;96.90;;;;;;6211349;28;84111;-68
2023/06/09 14:15:16;;;;;;;4.95;4.45;;;23.30;97.00;;;;;;6210502;28;84032;-68
2023/06/09 14:18:19;;;;;;;4.53;4.13;;;23.20;97.00;;;;;;6210796;28;84286;-71
2023/06/09 14:21:21;;;;;;;4.72;4.32;;;23.30;96.90;;;;;;6209532;28;84004;-71
2023/06/09 14:24:23;;;;;;;4.43;4.03;;;23.30;96.90;;;;;;6206923;28;89408;-70
2023/06/09 14:27:25;;;;;;;5.18;4.60;;;23.30;96.90;;;;;;6208457;28;88357;-70
2023/06/09 14:30:29;;;;;;;7.00;4.78;;;23.30;96.90;;;;;;6193527;28;88189;-70
2023/06/09 14:33:30;;;;;;;4.95;4.45;;;23.30;96.80;;;;;;6206714;28;89106;-71
2023/06/09 14:36:32;;;;;;;4.97;4.57;;;23.20;96.80;;;;;;6199495;28;90099;-70
2023/06/09 14:39:35;;;;;;;4.68;4.28;;;23.20;97.10;;;;;;6200469;28;89020;-70
2023/06/09 14:42:37;;;;;;;4.45;4.07;;;23.30;96.70;;;;;;6206659;28;89051;-70
2023/06/09 14:45:40;;;;;;;4.72;4.32;;;23.30;96.70;;;;;;6200962;28;89077;-71
2023/06/09 14:48:42;;;;;;;5.18;4.68;;;23.30;96.50;;;;;;6206768;28;89093;-70
2023/06/09 14:51:44;;;;;;;4.95;4.55;;;23.30;96.40;;;;;;6206768;28;89096;-70
2023/06/09 14:54:46;;;;;;;4.53;4.13;;;23.30;96.40;;;;;;6200533;28;88189;-71
2023/06/09 14:57:48;;;;;;;4.45;4.05;;;23.30;96.50;;;;;;6203154;28;88434;-68
2023/06/09 15:00:51;;;;;;;5.18;4.68;;;23.30;96.40;;;;;;6203055;28;89037;-68
2023/06/09 15:03:53;;;;;;;5.30;4.72;;;23.30;96.40;;;;;;6206735;28;89481;-68
2023/06/09 15:06:55;;;;;;;5.15;4.43;;;23.30;96.40;;;;;;6205791;28;89971;-68
2023/06/09 15:09:57;;;;;;;4.70;4.30;;;23.30;96.40;;;;;;6207708;28;87986;-68
2023/06/09 15:13:00;;;;;;;4.90;4.50;;;23.30;96.60;;;;;;6206189;28;89034;-68
2023/06/09 15:16:04;;;;;;;4.97;4.57;;;23.30;96.20;;;;;;6206752;28;87946;-68
2023/06/09 15:19:06;;;;;;;4.90;4.40;;;23.30;96.20;;;;;;6205679;28;89268;-68
2023/06/09 15:22:09;;;;;;;4.70;4.30;;;23.30;96.20;;;;;;6201672;28;89352;-68
2023/06/09 15:25:12;;;;;;;5.25;4.43;;;23.30;96.30;;;;;;6206836;28;87906;-67
2023/06/09 15:28:15;;;;;;;4.75;4.35;;;23.30;96.20;;;;;;6200865;28;88288;-68
2023/06/09 15:31:18;;;;;;;5.20;4.30;;;23.30;96.10;;;;;;6197827;28;89095;-67
2023/06/09 15:34:20;;;;;;;5.15;4.65;;;23.30;96.10;;;;;;6205943;28;87965;-68
2023/06/09 15:37:22;;;;;;;4.75;4.32;;;23.30;95.90;;;;;;6204349;28;89929;-68
2023/06/09 15:40:24;;;;;;;4.50;4.10;;;23.30;95.80;;;;;;6193726;28;89178;-67
2023/06/09 15:43:27;;;;;;;4.43;4.03;;;23.30;95.80;;;;;;6205426;28;89142;-68
2023/06/09 15:46:30;;;;;;;4.60;4.20;;;23.30;95.70;;;;;;6205626;28;89018;-68
2023/06/09 15:49:32;;;;;;;4.82;4.43;;;23.30;95.70;;;;;;6205567;28;89099;-67
2023/06/09 15:52:34;;;;;;;4.65;4.28;;;23.30;95.70;;;;;;6205559;28;89077;-67
2023/06/09 15:55:36;;;;;;;4.78;4.38;;;23.30;95.80;;;;;;6202976;28;89150;-68